Time;durP1;ratioP1;P1;durP2;ratioP2;P2;SDS_P1;SDS_P2;PMS_P1;PMS_P2;Temp;Humidity;BMP_temperature;BMP_pressure;BME280_temperature;BME280_humidity;BME280_pressure;Samples;Min_cycle;Max_cycle;Signal;HPM_P1;HPM_P2
2021/08/20 00:00:10;;;;;;;5.93;4.93;;;19.50;1.00;20.30;100507.00;;;;4973009;28;20995;-87
2021/08/20 00:02:43;;;;;;;6.20;5.13;;;19.50;1.00;20.20;100518.00;;;;4971849;28;20479;-85
2021/08/20 00:05:12;;;;;;;5.30;4.80;;;19.50;1.00;20.20;100504.00;;;;4970809;28;20530;-85
2021/08/20 00:07:41;;;;;;;5.13;4.70;;;19.50;1.00;20.20;100518.00;;;;4971805;28;20448;-84
2021/08/20 00:10:11;;;;;;;6.20;4.97;;;19.50;1.00;20.10;100514.00;;;;4972461;28;20515;-83
2021/08/20 00:12:40;;;;;;;5.80;4.60;;;19.50;1.00;20.00;100509.00;;;;4989525;28;20475;-82
2021/08/20 00:15:10;;;;;;;7.33;5.33;;;19.40;1.00;19.90;100511.00;;;;4976278;28;20462;-82
2021/08/20 00:17:39;;;;;;;5.23;4.73;;;19.30;1.00;19.80;100521.00;;;;4976138;28;20447;-84
2021/08/20 00:20:11;;;;;;;5.13;4.63;;;19.20;1.00;19.60;100516.00;;;;4972712;28;20491;-86
2021/08/20 00:22:40;;;;;;;5.63;5.13;;;19.10;1.00;19.80;100518.00;;;;4965254;28;20479;-83
2021/08/20 00:25:11;;;;;;;5.73;5.23;;;19.10;1.00;19.80;100517.00;;;;4969387;28;20487;-83
2021/08/20 00:27:40;;;;;;;6.90;5.40;;;19.10;1.00;19.80;100515.00;;;;4967414;28;20539;-85
2021/08/20 00:30:11;;;;;;;6.97;4.80;;;19.00;1.00;19.80;100520.00;;;;4966193;28;20460;-84
2021/08/20 00:32:40;;;;;;;6.80;5.33;;;19.10;1.00;19.90;100504.00;;;;4989945;28;20527;-84
2021/08/20 00:35:09;;;;;;;5.93;5.33;;;19.10;1.00;19.90;100505.00;;;;4972651;28;21003;-87
2021/08/20 00:37:39;;;;;;;5.73;4.90;;;19.10;1.00;19.80;100514.00;;;;4984304;28;20555;-87
2021/08/20 00:40:11;;;;;;;6.60;5.40;;;19.00;1.00;19.80;100502.00;;;;4992624;28;20451;-87
2021/08/20 00:42:39;;;;;;;5.47;4.60;;;19.10;1.00;19.90;100490.00;;;;4980946;28;20506;-86
2021/08/20 00:45:09;;;;;;;5.10;4.60;;;19.00;1.00;19.90;100468.00;;;;4991025;28;20483;-85
2021/08/20 00:47:37;;;;;;;5.90;5.30;;;19.00;1.00;19.90;100503.00;;;;4972556;28;20470;-85
2021/08/20 00:50:08;;;;;;;6.53;5.03;;;19.00;1.00;19.90;100509.00;;;;4965723;28;20468;-84
2021/08/20 00:52:38;;;;;;;8.40;5.20;;;19.00;1.00;19.90;100505.00;;;;4972477;28;20506;-88
2021/08/20 00:55:10;;;;;;;5.83;5.00;;;19.00;1.00;19.80;100511.00;;;;4971224;28;20468;-87
2021/08/20 00:57:38;;;;;;;7.87;5.60;;;18.90;1.00;19.80;100486.00;;;;4988791;28;21036;-84
2021/08/20 01:00:09;;;;;;;5.83;5.17;;;18.90;1.00;19.80;100495.00;;;;4971942;28;20455;-85
2021/08/20 01:02:37;;;;;;;7.20;5.60;;;18.90;1.00;19.80;100476.00;;;;4972237;28;20475;-87
2021/08/20 01:05:10;;;;;;;5.43;4.93;;;18.90;1.00;19.70;100509.00;;;;4985500;28;20506;-87
2021/08/20 01:07:39;;;;;;;6.57;5.27;;;18.90;1.00;19.70;100509.00;;;;4978250;28;20459;-84
2021/08/20 01:10:13;;;;;;;6.30;5.13;;;18.80;1.00;19.70;100505.00;;;;4973407;28;20952;-83
2021/08/20 01:12:41;;;;;;;6.10;5.13;;;18.80;1.00;19.60;100500.00;;;;4967768;28;20471;-87
2021/08/20 01:15:12;;;;;;;5.67;5.07;;;18.80;1.00;19.60;100503.00;;;;4965514;28;20464;-83
2021/08/20 01:17:46;;;;;;;5.53;4.87;;;18.80;1.00;19.60;100489.00;;;;4972289;28;20489;-86
2021/08/20 01:20:16;;;;;;;6.17;5.37;;;18.70;1.00;19.60;100466.00;;;;4987795;28;20471;-87
2021/08/20 01:22:44;;;;;;;6.13;5.53;;;18.70;1.00;19.50;100420.00;;;;4990608;28;20520;-87
2021/08/20 01:25:17;;;;;;;6.57;5.30;;;18.70;1.00;19.50;100375.00;;;;4999961;28;20464;-86
2021/08/20 01:27:46;;;;;;;6.57;5.37;;;18.70;1.00;19.50;100476.00;;;;4996081;28;20439;-84
2021/08/20 01:30:15;;;;;;;6.40;5.10;;;18.60;1.00;19.50;100472.00;;;;4986856;28;20474;-83
2021/08/20 01:32:44;;;;;;;6.33;5.63;;;18.60;1.00;19.40;100476.00;;;;4995033;28;20467;-83
2021/08/20 01:35:13;;;;;;;6.13;5.33;;;18.50;1.00;19.30;100496.00;;;;4970581;28;20530;-84
2021/08/20 01:37:42;;;;;;;7.00;6.00;;;18.50;1.00;19.20;100500.00;;;;4990021;28;20466;-87
2021/08/20 01:40:13;;;;;;;6.73;6.00;;;18.40;1.00;19.20;100506.00;;;;4972857;28;20458;-88
2021/08/20 01:42:44;;;;;;;6.67;5.97;;;18.40;1.00;19.10;100505.00;;;;4972139;28;21024;-85
2021/08/20 01:45:14;;;;;;;6.30;5.70;;;18.40;1.00;19.10;100487.00;;;;4965033;28;20471;-84
2021/08/20 01:47:45;;;;;;;5.70;5.10;;;18.40;1.00;19.00;100494.00;;;;4971519;28;20516;-84
2021/08/20 01:50:14;;;;;;;6.77;5.90;;;18.40;1.00;19.10;100498.00;;;;4967366;28;20633;-84
2021/08/20 01:52:44;;;;;;;6.90;5.73;;;18.40;1.00;19.10;100474.00;;;;4970781;28;20476;-84
2021/08/20 01:55:13;;;;;;;5.70;5.10;;;18.40;1.00;19.20;100503.00;;;;4973934;28;20896;-84
2021/08/20 01:57:45;;;;;;;6.60;5.90;;;18.40;1.00;19.20;100476.00;;;;4972683;28;20455;-84
2021/08/20 02:00:16;;;;;;;6.90;6.20;;;18.50;1.00;19.20;100490.00;;;;4982216;28;20535;-87
2021/08/20 02:02:46;;;;;;;6.40;5.53;;;18.50;1.00;19.20;100462.00;;;;4988685;28;20487;-86
2021/08/20 02:05:17;;;;;;;6.40;5.70;;;18.50;1.00;19.20;100466.00;;;;4977320;28;20471;-84
2021/08/20 02:07:45;;;;;;;6.40;5.50;;;18.60;1.00;19.20;100492.00;;;;4975332;28;20448;-83
2021/08/20 02:10:18;;;;;;;6.67;5.60;;;18.50;1.00;19.20;100499.00;;;;4965957;28;20455;-84
2021/08/20 02:12:51;;;;;;;5.90;5.30;;;18.50;1.00;19.20;100504.00;;;;4970387;28;20482;-84
2021/08/20 02:15:27;;;;;;;6.37;5.20;;;18.50;1.00;19.30;100502.00;;;;4970672;28;20455;-87
2021/08/20 02:17:55;;;;;;;6.27;5.70;;;18.50;1.00;19.30;100504.00;;;;4972243;28;20820;-84
2021/08/20 02:20:27;;;;;;;5.77;5.20;;;18.50;1.00;19.30;100504.00;;;;4987283;28;20486;-86
2021/08/20 02:22:57;;;;;;;5.90;5.40;;;18.50;1.00;19.30;100506.00;;;;4987544;28;20575;-88
2021/08/20 02:25:27;;;;;;;9.10;6.27;;;18.50;1.00;19.20;100525.00;;;;4972327;28;20488;-85
2021/08/20 02:27:56;;;;;;;6.50;5.30;;;18.50;1.00;18.80;100501.00;;;;4972734;28;20456;-85
2021/08/20 02:30:25;;;;;;;7.17;5.37;;;18.50;1.00;19.20;100467.00;;;;4968875;28;20543;-86
2021/08/20 02:32:54;;;;;;;6.50;5.33;;;18.40;1.00;19.10;100504.00;;;;4964313;28;20484;-82
2021/08/20 02:35:24;;;;;;;6.50;5.60;;;18.50;1.00;19.20;100484.00;;;;4969922;28;20990;-84
2021/08/20 02:37:54;;;;;;;8.07;5.53;;;18.50;1.00;19.20;100499.00;;;;4970514;28;20510;-84
2021/08/20 02:40:24;;;;;;;9.80;5.30;;;18.50;1.00;19.20;100501.00;;;;4966125;28;20455;-86
2021/08/20 02:42:52;;;;;;;6.90;5.30;;;18.60;1.00;19.20;100471.00;;;;4984123;28;20542;-87
2021/08/20 02:45:23;;;;;;;6.50;5.57;;;18.50;1.00;19.20;100449.00;;;;4985111;28;20472;-84
2021/08/20 02:48:00;;;;;;;6.03;5.43;;;18.50;1.00;19.10;100503.00;;;;4966209;28;21036;-84
2021/08/20 02:50:29;;;;;;;6.93;5.97;;;18.40;1.00;19.00;100494.00;;;;4991083;28;20472;-85
2021/08/20 02:52:58;;;;;;;9.40;6.80;;;18.40;1.00;18.90;100502.00;;;;4994272;28;20467;-86
2021/08/20 02:55:30;;;;;;;5.90;5.30;;;18.30;1.00;18.90;100499.00;;;;4977192;28;20491;-86
2021/08/20 02:58:00;;;;;;;7.20;6.13;;;18.40;1.00;18.60;100500.00;;;;4980678;28;20483;-87
2021/08/20 03:00:35;;;;;;;6.73;6.00;;;18.20;1.00;18.70;100491.00;;;;4977361;28;20549;-84
2021/08/20 03:03:04;;;;;;;8.13;5.93;;;18.10;1.00;18.70;100502.00;;;;4981626;28;20479;-85
2021/08/20 03:05:33;;;;;;;7.03;6.40;;;18.00;1.00;18.60;100489.00;;;;4980233;28;20547;-85
2021/08/20 03:08:02;;;;;;;6.93;6.23;;;18.00;1.00;18.60;100491.00;;;;4968490;28;20535;-86
2021/08/20 03:10:34;;;;;;;7.40;6.70;;;18.00;1.00;18.50;100504.00;;;;4982569;28;20456;-84
2021/08/20 03:13:04;;;;;;;7.80;5.80;;;17.90;1.00;18.60;100498.00;;;;4987144;28;20475;-84
2021/08/20 03:15:35;;;;;;;7.73;6.00;;;18.00;1.00;18.60;100413.00;;;;4985772;28;20455;-83
2021/08/20 03:18:03;;;;;;;6.00;5.40;;;18.00;1.00;18.60;100504.00;;;;4990596;28;20440;-84
2021/08/20 03:20:32;;;;;;;7.13;5.70;;;18.00;1.00;18.70;100495.00;;;;4989736;28;20519;-84
2021/08/20 03:23:08;;;;;;;7.20;6.50;;;18.00;1.00;18.70;100480.00;;;;4992326;28;20972;-86
2021/08/20 03:25:37;;;;;;;6.83;5.93;;;18.10;1.00;18.70;100459.00;;;;4990808;28;20475;-87
2021/08/20 03:28:09;;;;;;;6.33;5.73;;;18.00;1.00;18.70;100461.00;;;;4982866;28;20455;-83
2021/08/20 03:30:43;;;;;;;9.40;5.93;;;18.00;1.00;18.70;100483.00;;;;4972970;28;20459;-83
2021/08/20 03:33:12;;;;;;;7.53;6.57;;;18.00;1.00;18.60;100473.00;;;;4972956;28;21283;-84
2021/08/20 03:35:48;;;;;;;7.60;6.10;;;17.90;1.00;18.50;100459.00;;;;4971248;28;20466;-86
2021/08/20 03:38:20;;;;;;;6.83;6.10;;;17.90;1.00;18.50;100464.00;;;;4969439;28;20459;-85
2021/08/20 03:40:50;;;;;;;8.20;6.97;;;17.90;1.00;18.40;100474.00;;;;4971760;28;20479;-83
2021/08/20 03:43:22;;;;;;;7.67;6.97;;;17.80;1.00;18.40;100469.00;;;;4964222;28;20487;-83
2021/08/20 03:46:09;;;;;;;8.10;6.50;;;17.80;1.00;18.30;100475.00;;;;4969965;28;20515;-83
2021/08/20 03:48:39;;;;;;;11.27;7.07;;;17.70;1.00;18.20;100481.00;;;;4987125;28;20451;-84
2021/08/20 03:51:08;;;;;;;7.43;6.70;;;17.60;1.00;18.20;100476.00;;;;4967674;28;20491;-87
2021/08/20 03:53:38;;;;;;;9.53;6.77;;;17.50;1.00;18.10;100477.00;;;;4989450;28;20460;-86
2021/08/20 03:56:07;;;;;;;7.30;6.60;;;17.40;1.00;18.00;100486.00;;;;4982857;28;20456;-84
2021/08/20 03:58:41;;;;;;;9.13;7.50;;;17.40;1.00;18.00;100500.00;;;;4978055;28;20469;-84
2021/08/20 04:01:22;;;;;;;12.20;7.00;;;17.30;1.00;17.90;100492.00;;;;4989047;28;21158;-82
2021/08/20 04:03:53;;;;;;;7.87;6.67;;;17.30;1.00;17.90;100491.00;;;;4969767;28;20616;-82
2021/08/20 04:06:40;;;;;;;8.07;7.07;;;17.30;1.00;17.80;100497.00;;;;4971907;28;20946;-82
2021/08/20 04:09:11;;;;;;;8.83;7.83;;;17.20;1.00;17.80;100491.00;;;;4968250;28;20479;-81
2021/08/20 04:11:42;;;;;;;9.23;7.20;;;17.20;1.00;17.70;100481.00;;;;4973197;28;20463;-83
2021/08/20 04:14:17;;;;;;;8.53;7.67;;;17.20;1.00;17.70;100486.00;;;;4974821;28;20481;-83
2021/08/20 04:16:47;;;;;;;8.30;7.10;;;17.10;1.00;17.60;100398.00;;;;4977710;28;21027;-82
2021/08/20 04:19:16;;;;;;;9.07;6.97;;;17.10;1.00;17.60;100509.00;;;;4989337;28;21308;-86
2021/08/20 04:21:45;;;;;;;8.13;6.70;;;17.10;1.00;17.60;100499.00;;;;4985532;28;20543;-81
2021/08/20 04:24:17;;;;;;;8.60;7.73;;;17.10;1.00;17.60;100484.00;;;;4999307;28;20510;-86
2021/08/20 04:26:48;;;;;;;9.80;6.87;;;17.10;1.00;17.60;100500.00;;;;4972519;28;20464;-81
2021/08/20 04:29:31;;;;;;;7.20;6.50;;;17.10;1.00;17.60;100492.00;;;;4971038;28;20463;-82
2021/08/20 04:32:14;;;;;;;7.70;6.90;;;17.10;1.00;17.60;100513.00;;;;4979189;28;20459;-84
2021/08/20 04:34:56;;;;;;;7.00;6.13;;;17.20;1.00;17.60;100498.00;;;;4975517;28;20471;-84
2021/08/20 04:37:40;;;;;;;7.57;6.87;;;17.20;1.00;17.60;100494.00;;;;4972599;28;20455;-83
2021/08/20 04:40:30;;;;;;;10.63;6.73;;;17.20;1.00;17.60;100512.00;;;;4973865;28;20463;-85
2021/08/20 04:43:08;;;;;;;8.13;6.27;;;17.20;1.00;17.60;100517.00;;;;4973919;28;20479;-81
2021/08/20 04:45:47;;;;;;;7.70;6.50;;;17.20;1.00;17.60;100530.00;;;;4965192;28;21499;-83
2021/08/20 04:48:39;;;;;;;7.10;6.40;;;17.20;1.00;17.70;100526.00;;;;4972652;28;20456;-83
2021/08/20 04:51:13;;;;;;;7.10;6.40;;;17.20;1.00;17.70;100509.00;;;;4972693;28;20463;-82
2021/08/20 04:53:45;;;;;;;8.10;6.07;;;17.20;1.00;17.70;100534.00;;;;4964599;28;20574;-84
2021/08/20 04:56:21;;;;;;;7.10;6.40;;;17.30;1.00;17.80;100534.00;;;;4978548;28;20450;-87
2021/08/20 04:58:49;;;;;;;8.43;6.40;;;17.30;1.00;17.90;100546.00;;;;4986987;28;20491;-85
2021/08/20 05:01:18;;;;;;;7.90;6.10;;;17.40;1.00;18.00;100509.00;;;;4992585;28;20447;-85
2021/08/20 05:03:49;;;;;;;6.60;6.00;;;17.40;1.00;18.10;100540.00;;;;4990975;28;20551;-82
2021/08/20 05:06:17;;;;;;;7.37;6.53;;;17.50;1.00;18.10;100542.00;;;;4982233;28;20494;-83
2021/08/20 05:08:46;;;;;;;6.77;6.20;;;17.50;1.00;18.20;100542.00;;;;4974644;28;20447;-83
2021/08/20 05:11:14;;;;;;;6.53;5.93;;;17.60;1.00;18.40;100547.00;;;;4979595;28;20479;-82
2021/08/20 05:13:43;;;;;;;6.37;5.67;;;17.70;1.00;18.50;100504.00;;;;4982911;28;20678;-82
2021/08/20 05:16:11;;;;;;;7.90;5.90;;;17.80;1.00;18.60;100540.00;;;;4982623;28;20458;-82
2021/08/20 05:18:40;;;;;;;6.37;5.77;;;17.90;1.00;18.70;100543.00;;;;4975158;28;20463;-82
2021/08/20 05:21:09;;;;;;;7.10;6.30;;;18.00;1.00;18.80;100543.00;;;;4974484;28;20463;-81
2021/08/20 05:23:38;;;;;;;7.70;6.40;;;18.10;1.00;18.70;100542.00;;;;4974081;28;20639;-83
2021/08/20 05:26:06;;;;;;;7.77;5.80;;;18.10;1.00;18.80;100553.00;;;;4974199;28;20457;-85
2021/08/20 05:28:35;;;;;;;6.53;5.57;;;18.20;1.00;18.80;100550.00;;;;4972943;28;20583;-81
2021/08/20 05:31:03;;;;;;;6.50;5.47;;;18.20;1.00;18.90;100558.00;;;;4973816;28;20456;-82
2021/08/20 05:33:32;;;;;;;6.83;5.60;;;18.30;1.00;19.00;100559.00;;;;4973314;28;20463;-82
2021/08/20 05:36:00;;;;;;;6.10;5.60;;;18.40;1.00;19.10;100533.00;;;;4975017;28;20467;-82
2021/08/20 05:38:30;;;;;;;7.53;5.60;;;18.40;1.00;19.10;100574.00;;;;4972879;28;20459;-83
2021/08/20 05:40:58;;;;;;;8.17;6.00;;;18.50;1.00;19.10;100569.00;;;;4988272;28;20455;-88
2021/08/20 05:43:27;;;;;;;7.17;5.43;;;18.50;1.00;19.10;100573.00;;;;4989549;28;20985;-82
2021/08/20 05:45:55;;;;;;;5.63;5.13;;;18.50;1.00;19.10;100575.00;;;;4965142;28;20448;-83
2021/08/20 05:48:23;;;;;;;6.17;4.87;;;18.50;1.00;18.90;100569.00;;;;4974893;28;21005;-83
2021/08/20 05:50:52;;;;;;;7.77;5.07;;;18.40;1.00;18.80;100562.00;;;;4973201;28;20471;-83
2021/08/20 05:53:21;;;;;;;6.17;4.80;;;18.30;1.00;18.80;100563.00;;;;4964361;28;20581;-88
2021/08/20 05:55:51;;;;;;;7.40;5.40;;;18.20;1.00;18.70;100559.00;;;;4965264;28;21562;-84
2021/08/20 05:58:20;;;;;;;5.60;4.77;;;18.20;1.00;18.70;100558.00;;;;4976382;28;21522;-83
2021/08/20 06:00:49;;;;;;;6.17;5.53;;;18.20;1.00;18.90;100591.00;;;;4970599;28;20462;-82
2021/08/20 06:03:21;;;;;;;5.63;5.13;;;18.30;1.00;19.10;100550.00;;;;4973427;28;20526;-82
2021/08/20 06:05:52;;;;;;;5.20;4.70;;;18.40;1.00;19.30;100565.00;;;;4980874;28;20987;-83
2021/08/20 06:08:22;;;;;;;5.83;4.83;;;18.60;1.00;19.50;100558.00;;;;4983467;28;20490;-83
2021/08/20 06:10:52;;;;;;;5.47;4.33;;;18.80;1.00;19.50;100580.00;;;;4983703;28;20539;-86
2021/08/20 06:13:20;;;;;;;5.90;4.53;;;18.80;1.00;19.50;100574.00;;;;4981397;28;20511;-85
2021/08/20 06:15:49;;;;;;;5.70;4.50;;;18.90;1.00;19.70;100552.00;;;;4977707;28;20452;-85
2021/08/20 06:18:17;;;;;;;5.00;4.50;;;19.00;1.00;19.90;100569.00;;;;4987819;28;20475;-84
2021/08/20 06:20:46;;;;;;;5.40;4.57;;;19.10;1.00;20.10;100542.00;;;;5000465;28;20499;-83
2021/08/20 06:23:14;;;;;;;5.10;4.10;;;19.30;1.00;20.20;100572.00;;;;4977671;28;20480;-83
2021/08/20 06:25:42;;;;;;;5.53;4.10;;;19.50;1.00;20.40;100557.00;;;;4978196;28;20499;-84
2021/08/20 06:28:12;;;;;;;4.73;3.87;;;19.70;1.00;20.50;100586.00;;;;4965833;28;20530;-85
2021/08/20 06:30:46;;;;;;;5.00;4.30;;;19.70;1.00;20.60;100586.00;;;;4969569;28;20459;-84
2021/08/20 06:33:14;;;;;;;4.33;3.90;;;20.00;1.00;20.80;100579.00;;;;4969240;28;20524;-84
2021/08/20 06:35:44;;;;;;;6.80;4.27;;;20.00;1.00;21.00;100581.00;;;;4975677;28;20463;-84
2021/08/20 06:38:13;;;;;;;5.20;3.70;;;20.20;1.00;21.30;100554.00;;;;4967466;28;20993;-83
2021/08/20 06:40:42;;;;;;;5.70;4.10;;;20.40;1.00;21.40;100572.00;;;;4954603;28;20543;-83
2021/08/20 06:43:11;;;;;;;4.50;4.10;;;20.60;1.00;21.40;100573.00;;;;4973276;28;20483;-86
2021/08/20 06:45:40;;;;;;;6.17;4.40;;;20.60;1.00;21.10;100600.00;;;;4971196;28;20467;-84
2021/08/20 06:48:09;;;;;;;4.30;3.90;;;20.30;1.00;20.80;100607.00;;;;4974107;28;20490;-83
2021/08/20 06:50:37;;;;;;;5.30;3.63;;;20.10;1.00;20.60;100598.00;;;;4979464;28;20487;-82
2021/08/20 06:53:06;;;;;;;5.23;3.67;;;19.90;1.00;20.40;100590.00;;;;4990830;28;20476;-84
2021/08/20 06:55:35;;;;;;;3.83;3.37;;;19.70;1.00;20.50;100605.00;;;;4991423;28;20503;-83
2021/08/20 06:58:04;;;;;;;4.20;3.43;;;19.70;1.00;20.40;100598.00;;;;4977902;28;20458;-84
2021/08/20 07:00:34;;;;;;;4.43;3.80;;;19.60;1.00;20.50;100530.00;;;;4991088;28;20447;-87
2021/08/20 07:03:03;;;;;;;7.20;4.47;;;19.80;1.00;20.70;100591.00;;;;4991803;28;20510;-84
2021/08/20 07:05:33;;;;;;;4.10;3.70;;;19.90;1.00;20.80;100588.00;;;;4980271;28;20456;-83
2021/08/20 07:08:01;;;;;;;6.80;4.27;;;20.10;1.00;20.90;100586.00;;;;4976664;28;20488;-82
2021/08/20 07:10:34;;;;;;;5.47;3.50;;;20.10;1.00;21.00;100596.00;;;;4973490;28;20491;-81
2021/08/20 07:13:03;;;;;;;5.40;3.80;;;20.10;1.00;21.10;100599.00;;;;4974149;28;20567;-84
2021/08/20 07:15:32;;;;;;;8.60;3.93;;;20.20;1.00;21.20;100581.00;;;;4978014;28;20451;-81
2021/08/20 07:18:01;;;;;;;4.10;3.70;;;20.30;1.00;21.20;100601.00;;;;4972687;28;20506;-83
2021/08/20 07:20:30;;;;;;;5.73;4.00;;;20.40;1.00;21.30;100596.00;;;;4973588;28;20459;-81
2021/08/20 07:22:58;;;;;;;4.37;3.97;;;20.50;1.00;21.50;100597.00;;;;4971534;28;20489;-81
2021/08/20 07:25:26;;;;;;;5.10;3.63;;;20.70;1.00;21.60;100573.00;;;;4970312;28;20592;-83
2021/08/20 07:27:55;;;;;;;4.17;3.77;;;20.80;1.00;21.70;100601.00;;;;4977159;28;20479;-82
2021/08/20 07:30:23;;;;;;;4.80;3.57;;;20.90;1.00;21.90;100593.00;;;;4968420;28;21580;-83
2021/08/20 07:32:53;;;;;;;5.00;3.57;;;21.10;1.00;21.50;100588.00;;;;4970586;28;20503;-82
2021/08/20 07:35:22;;;;;;;5.40;4.33;;;20.90;1.00;21.60;100600.00;;;;4971790;28;20465;-83
2021/08/20 07:37:51;;;;;;;4.17;3.77;;;20.90;1.00;21.90;100569.00;;;;4979818;28;20462;-81
2021/08/20 07:40:19;;;;;;;3.80;3.10;;;21.10;1.00;22.00;100590.00;;;;4976206;28;20459;-83
2021/08/20 07:42:48;;;;;;;4.90;3.67;;;21.30;1.00;22.30;100602.00;;;;4983032;28;20486;-82
2021/08/20 07:45:17;;;;;;;6.30;3.30;;;21.50;1.00;22.60;100597.00;;;;4973384;28;20460;-84
2021/08/20 07:47:48;;;;;;;6.27;4.00;;;21.90;1.00;23.00;100597.00;;;;4972359;28;20479;-83
2021/08/20 07:50:18;;;;;;;3.90;3.50;;;22.20;1.00;23.10;100599.00;;;;4974626;28;20466;-83
2021/08/20 07:52:47;;;;;;;5.00;4.17;;;22.30;1.00;23.30;100607.00;;;;4973231;28;20471;-84
2021/08/20 07:55:17;;;;;;;4.60;3.67;;;22.40;1.00;23.50;100588.00;;;;4976515;28;20513;-84
2021/08/20 07:57:58;;;;;;;4.43;2.70;;;22.60;1.00;23.10;100611.00;;;;4970355;28;20487;-88
2021/08/20 08:00:28;;;;;;;3.37;3.07;;;22.30;1.00;23.30;100576.00;;;;5001184;28;20459;-88
2021/08/20 08:02:58;;;;;;;5.63;3.43;;;22.30;1.00;23.30;100601.00;;;;5001809;28;20483;-83
2021/08/20 08:05:30;;;;;;;4.00;3.43;;;22.50;1.00;23.30;100618.00;;;;4994438;28;20443;-84
2021/08/20 08:07:59;;;;;;;4.10;3.70;;;22.60;1.00;23.40;100606.00;;;;4975574;28;21140;-83
2021/08/20 08:10:27;;;;;;;5.37;3.10;;;22.60;1.00;23.30;100607.00;;;;4971663;28;20455;-83
2021/08/20 08:12:57;;;;;;;3.30;3.00;;;22.50;1.00;23.20;100609.00;;;;4971859;28;20566;-81
2021/08/20 08:15:26;;;;;;;2.97;2.67;;;22.40;1.00;22.90;100617.00;;;;4974120;28;20456;-82
2021/08/20 08:17:56;;;;;;;5.50;3.00;;;22.30;1.00;22.80;100613.00;;;;4976061;28;20455;-83
2021/08/20 08:20:25;;;;;;;3.00;2.67;;;22.10;1.00;22.60;100619.00;;;;4987094;28;20448;-84
2021/08/20 08:22:55;;;;;;;3.80;3.30;;;22.00;1.00;22.30;100632.00;;;;4992610;28;20861;-83
2021/08/20 08:25:27;;;;;;;4.53;3.33;;;21.80;1.00;22.10;100642.00;;;;5007391;28;20476;-83
2021/08/20 08:27:58;;;;;;;5.23;3.00;;;21.60;1.00;22.00;100649.00;;;;4994356;28;20439;-82
2021/08/20 08:30:29;;;;;;;4.67;3.30;;;21.50;1.00;22.00;100637.00;;;;4991451;28;20444;-84
2021/08/20 08:32:59;;;;;;;3.70;2.90;;;21.60;1.00;22.10;100656.00;;;;4973113;28;20483;-82
2021/08/20 08:35:29;;;;;;;3.20;2.40;;;21.50;1.00;22.00;100653.00;;;;4978821;28;20474;-85
2021/08/20 08:38:08;;;;;;;5.20;3.00;;;21.40;1.00;22.20;100632.00;;;;4989470;28;20487;-83
2021/08/20 08:40:39;;;;;;;3.93;3.20;;;21.50;1.00;22.10;100639.00;;;;4995562;28;20543;-84
2021/08/20 08:43:09;;;;;;;5.43;3.03;;;21.50;1.00;22.00;100659.00;;;;4993527;28;20483;-84
2021/08/20 08:45:38;;;;;;;3.83;2.60;;;21.50;1.00;22.40;100611.00;;;;4993412;28;20442;-83
2021/08/20 08:48:09;;;;;;;3.67;2.43;;;22.00;1.00;22.90;100653.00;;;;4997178;28;20873;-83
2021/08/20 08:50:39;;;;;;;2.83;2.53;;;22.20;1.00;23.20;100618.00;;;;4971967;28;20456;-83
2021/08/20 08:53:09;;;;;;;4.20;2.80;;;22.60;1.00;23.60;100632.00;;;;4990463;28;20563;-81
2021/08/20 08:55:55;;;;;;;4.03;2.60;;;22.90;1.00;24.00;100629.00;;;;4986443;28;20452;-82
2021/08/20 08:58:24;;;;;;;3.80;2.67;;;23.20;1.00;24.50;100628.00;;;;4985573;28;20523;-82
2021/08/20 09:00:53;;;;;;;3.10;2.63;;;23.60;1.00;25.00;100618.00;;;;4979856;28;20974;-82
2021/08/20 09:03:24;;;;;;;10.50;7.03;;;24.00;1.00;25.20;100637.00;;;;4980078;28;20550;-83
2021/08/20 09:05:54;;;;;;;5.17;3.63;;;24.30;1.00;25.00;100655.00;;;;4993374;28;20445;-83
2021/08/20 09:08:26;;;;;;;3.40;2.70;;;24.10;1.00;24.90;100644.00;;;;4991095;28;20480;-81
2021/08/20 09:10:58;;;;;;;3.57;2.40;;;24.20;1.00;24.90;100640.00;;;;4973353;28;20480;-82
2021/08/20 09:13:30;;;;;;;5.00;3.77;;;24.10;1.00;24.80;100653.00;;;;4992655;28;20615;-84
2021/08/20 09:16:08;;;;;;;4.20;2.80;;;23.80;1.00;24.80;100654.00;;;;4975583;28;20455;-84
2021/08/20 09:18:37;;;;;;;3.80;2.57;;;23.70;1.00;24.60;100618.00;;;;4979313;28;20463;-82
2021/08/20 09:21:07;;;;;;;4.27;2.90;;;23.60;1.00;24.20;100645.00;;;;4986839;28;20447;-81
2021/08/20 09:23:37;;;;;;;4.30;3.37;;;23.40;1.00;23.90;100662.00;;;;4978205;28;20484;-81
2021/08/20 09:26:05;;;;;;;3.07;2.80;;;23.10;1.00;23.80;100648.00;;;;4977326;28;20541;-83
2021/08/20 09:28:35;;;;;;;3.50;2.97;;;23.00;1.00;23.70;100603.00;;;;4973771;28;20475;-82
2021/08/20 09:31:08;;;;;;;4.07;3.30;;;22.90;1.00;23.70;100654.00;;;;4974370;28;20452;-81
2021/08/20 09:33:39;;;;;;;3.93;2.57;;;22.90;1.00;23.60;100667.00;;;;4985378;28;20503;-81
2021/08/20 09:36:10;;;;;;;3.80;3.10;;;22.80;1.00;23.50;100660.00;;;;4986875;28;20542;-84
2021/08/20 09:38:43;;;;;;;3.67;2.77;;;22.90;1.00;23.30;100652.00;;;;4983134;28;20466;-82
2021/08/20 09:41:13;;;;;;;3.83;3.10;;;22.70;1.00;23.20;100643.00;;;;4980518;28;21103;-83
2021/08/20 09:43:47;;;;;;;3.57;3.10;;;22.70;1.00;23.20;100627.00;;;;4967008;28;20942;-87
2021/08/20 09:46:21;;;;;;;4.93;3.37;;;22.70;1.00;23.30;100658.00;;;;4991927;28;20542;-85
2021/08/20 09:48:53;;;;;;;3.97;3.20;;;22.80;1.00;23.40;100661.00;;;;4973110;28;20574;-84
2021/08/20 09:51:43;;;;;;;3.57;2.60;;;23.00;1.00;23.60;100635.00;;;;4970374;28;20455;-88
2021/08/20 09:54:16;;;;;;;5.03;2.80;;;23.30;1.00;23.70;100665.00;;;;4969562;28;20501;-84
2021/08/20 09:57:01;;;;;;;5.20;2.73;;;23.40;1.00;23.70;100670.00;;;;4965214;28;21044;-82
2021/08/20 09:59:30;;;;;;;3.20;2.80;;;23.40;1.00;23.60;100654.00;;;;4968735;28;20466;-86
2021/08/20 10:02:01;;;;;;;3.43;3.03;;;23.20;1.00;23.60;100641.00;;;;4982881;28;20534;-84
2021/08/20 10:04:34;;;;;;;3.77;3.13;;;23.30;1.00;23.60;100643.00;;;;4984693;28;20471;-85
2021/08/20 10:07:05;;;;;;;4.77;2.93;;;23.30;1.00;23.60;100672.00;;;;4971441;28;20456;-87
2021/08/20 10:09:39;;;;;;;3.57;2.80;;;23.20;1.00;23.40;100664.00;;;;4974142;28;20480;-83
2021/08/20 10:12:08;;;;;;;4.27;2.80;;;23.20;1.00;23.60;100636.00;;;;4979403;28;20443;-84
2021/08/20 10:14:37;;;;;;;3.20;2.90;;;23.30;1.00;23.60;100652.00;;;;4990970;28;20556;-85
2021/08/20 10:17:06;;;;;;;4.70;4.20;;;23.40;1.00;23.60;100616.00;;;;4981738;28;20466;-82
2021/08/20 10:19:37;;;;;;;6.07;3.90;;;23.50;1.00;23.70;100648.00;;;;4976751;28;20539;-82
2021/08/20 10:22:07;;;;;;;5.50;3.13;;;23.60;1.00;23.90;100650.00;;;;4977141;28;20455;-82
2021/08/20 10:24:38;;;;;;;3.10;2.77;;;23.80;1.00;23.90;100652.00;;;;4976203;28;20996;-83
2021/08/20 10:27:09;;;;;;;3.50;3.17;;;23.80;1.00;23.80;100647.00;;;;4970815;28;20510;-84
2021/08/20 10:29:43;;;;;;;4.30;3.10;;;23.80;1.00;24.10;100645.00;;;;4975191;28;20478;-84
2021/08/20 10:32:15;;;;;;;3.60;2.80;;;23.90;1.00;24.30;100651.00;;;;4975092;28;20458;-83
2021/08/20 10:34:44;;;;;;;3.70;2.90;;;24.20;1.00;24.70;100631.00;;;;4990359;28;21092;-83
2021/08/20 10:37:15;;;;;;;3.80;2.97;;;24.50;1.00;25.10;100617.00;;;;4979999;28;20488;-85
2021/08/20 10:39:47;;;;;;;3.30;2.73;;;24.80;1.00;25.50;100633.00;;;;4992684;28;20490;-85
2021/08/20 10:42:18;;;;;;;3.57;3.27;;;25.00;1.00;26.00;100625.00;;;;4980610;28;20460;-83
2021/08/20 10:44:48;;;;;;;3.23;2.80;;;25.40;1.00;26.40;100634.00;;;;4976624;28;20467;-83
2021/08/20 10:47:24;;;;;;;2.97;2.50;;;25.70;1.00;26.70;100611.00;;;;4982591;28;20495;-84
2021/08/20 10:50:08;;;;;;;4.20;2.60;;;26.10;1.00;26.90;100613.00;;;;4992238;28;20467;-86
2021/08/20 10:52:40;;;;;;;3.80;2.63;;;26.50;1.00;26.90;100625.00;;;;4987346;28;20830;-83
2021/08/20 10:55:32;;;;;;;3.23;2.80;;;26.40;1.00;27.10;100619.00;;;;4986199;28;20475;-84
2021/08/20 10:58:10;;;;;;;4.13;2.47;;;26.50;1.00;27.20;100640.00;;;;4987781;28;20443;-83
2021/08/20 11:00:42;;;;;;;2.90;2.53;;;26.50;1.00;27.40;100639.00;;;;4978522;28;20518;-84
2021/08/20 11:03:12;;;;;;;3.37;2.50;;;26.80;1.00;27.60;100619.00;;;;4978882;28;20463;-81
2021/08/20 11:05:45;;;;;;;3.40;2.67;;;26.80;1.00;27.60;100643.00;;;;4978628;28;20471;-84
2021/08/20 11:08:44;;;;;;;3.60;2.43;;;27.00;1.00;27.70;100614.00;;;;4979339;28;20455;-82
2021/08/20 11:11:45;;;;;;;3.33;2.73;;;27.30;1.00;27.70;100642.00;;;;4982043;28;20472;-83